createdAt,value
2018-05-23T00:00:02.255Z,1022.77
2018-05-23T00:01:29.403Z,1022.79
2018-05-23T00:02:56.737Z,1022.83
2018-05-23T00:04:24.214Z,1022.84
2018-05-23T00:05:51.399Z,1022.89
2018-05-23T00:07:18.910Z,1022.88
2018-05-23T00:08:46.264Z,1022.87
2018-05-23T00:10:13.648Z,1022.86
2018-05-23T00:11:40.917Z,1022.84
2018-05-23T00:13:08.351Z,1022.84
2018-05-23T00:14:35.654Z,1022.83
2018-05-23T00:16:03.061Z,1022.83
2018-05-23T00:17:30.409Z,1022.81
2018-05-23T00:18:57.681Z,1022.80
2018-05-23T00:20:24.776Z,1022.81
2018-05-23T00:21:52.282Z,1022.83
2018-05-23T00:23:19.663Z,1022.86
2018-05-23T00:24:47.009Z,1022.87
2018-05-23T00:26:14.228Z,1022.89
2018-05-23T00:27:41.485Z,1022.91
2018-05-23T00:29:08.946Z,1022.93
2018-05-23T00:30:36.120Z,1022.92
2018-05-23T00:32:03.494Z,1022.95
2018-05-23T00:33:30.746Z,1022.98
2018-05-23T00:34:58.015Z,1023.00
2018-05-23T00:36:25.357Z,1023.00
2018-05-23T00:37:52.776Z,1023.02
2018-05-23T00:39:20.008Z,1023.00
2018-05-23T00:40:47.511Z,1023.00
2018-05-23T00:42:14.680Z,1022.99
2018-05-23T00:43:42.013Z,1023.00
2018-05-23T00:45:09.277Z,1022.99
2018-05-23T00:46:36.490Z,1023.01
2018-05-23T00:48:03.995Z,1023.02
2018-05-23T00:49:31.199Z,1023.02
2018-05-23T00:50:58.698Z,1023.04
2018-05-23T00:52:26.047Z,1023.02
2018-05-23T00:53:53.242Z,1022.99
2018-05-23T00:55:20.644Z,1022.98
2018-05-23T00:56:48.071Z,1022.98
2018-05-23T00:58:15.489Z,1022.99
2018-05-23T00:59:42.983Z,1023.01
2018-05-23T01:01:10.162Z,1023.02
2018-05-23T01:02:37.340Z,1023.05
2018-05-23T01:04:04.604Z,1023.08
2018-05-23T01:05:31.911Z,1023.09
2018-05-23T01:06:58.870Z,1023.11
2018-05-23T01:08:26.301Z,1023.17
2018-05-23T01:09:53.535Z,1023.19
2018-05-23T01:11:21.946Z,1023.16
2018-05-23T01:12:48.316Z,1023.17
2018-05-23T01:14:15.353Z,1023.17
2018-05-23T01:15:42.718Z,1023.17
2018-05-23T01:17:10.140Z,1023.20
2018-05-23T01:18:37.548Z,1023.23
2018-05-23T01:20:04.781Z,1023.23
2018-05-23T01:21:32.253Z,1023.25
2018-05-23T01:22:59.411Z,1023.24
2018-05-23T01:24:26.788Z,1023.27
2018-05-23T01:25:54.014Z,1023.28
2018-05-23T01:27:21.210Z,1023.28
2018-05-23T01:28:48.561Z,1023.33
2018-05-23T01:30:15.908Z,1023.34
2018-05-23T01:31:43.306Z,1023.34
2018-05-23T01:33:10.739Z,1023.35
2018-05-23T01:34:38.196Z,1023.35
2018-05-23T01:36:05.531Z,1023.35
2018-05-23T01:37:32.883Z,1023.36
2018-05-23T01:39:00.001Z,1023.36
2018-05-23T01:40:27.324Z,1023.41
2018-05-23T01:41:54.520Z,1023.44
2018-05-23T01:43:21.820Z,1023.44
2018-05-23T01:44:49.200Z,1023.47
2018-05-23T01:46:16.791Z,1023.47
2018-05-23T01:47:44.168Z,1023.48
2018-05-23T01:49:11.482Z,1023.51
2018-05-23T01:50:38.882Z,1023.50
2018-05-23T01:52:06.287Z,1023.51
2018-05-23T01:53:33.749Z,1023.54
2018-05-23T01:55:00.863Z,1023.54
2018-05-23T01:56:28.386Z,1023.57
2018-05-23T01:57:55.370Z,1023.61
2018-05-23T01:59:22.528Z,1023.61
2018-05-23T02:00:49.755Z,1023.62
2018-05-23T02:02:17.044Z,1023.64
2018-05-23T02:03:44.040Z,1023.62
2018-05-23T02:05:11.468Z,1023.65
2018-05-23T02:06:38.509Z,1023.65
2018-05-23T02:08:05.907Z,1023.63
2018-05-23T02:09:33.155Z,1023.63
2018-05-23T02:11:00.321Z,1023.65
2018-05-23T02:12:27.599Z,1023.63
2018-05-23T02:13:54.881Z,1023.62
2018-05-23T02:15:22.336Z,1023.66
2018-05-23T02:16:49.580Z,1023.66
2018-05-23T02:18:16.802Z,1023.66
2018-05-23T02:19:44.158Z,1023.71
2018-05-23T02:21:11.356Z,1023.72
2018-05-23T02:22:38.787Z,1023.72
2018-05-23T02:24:06.256Z,1023.72
2018-05-23T02:25:33.385Z,1023.74
2018-05-23T02:27:00.761Z,1023.75
2018-05-23T02:28:28.103Z,1023.73
2018-05-23T02:29:55.287Z,1023.75
2018-05-23T02:31:22.654Z,1023.78
2018-05-23T02:32:49.971Z,1023.80
2018-05-23T02:34:17.231Z,1023.81
2018-05-23T02:35:44.519Z,1023.80
2018-05-23T02:37:12.043Z,1023.81
2018-05-23T02:38:39.343Z,1023.79
2018-05-23T02:40:06.779Z,1023.80
2018-05-23T02:41:33.972Z,1023.82
2018-05-23T02:43:01.380Z,1023.82
2018-05-23T02:44:28.586Z,1023.83
2018-05-23T02:45:56.694Z,1023.82
2018-05-23T02:47:22.912Z,1023.84
2018-05-23T02:48:50.184Z,1023.85
2018-05-23T02:50:17.422Z,1023.83
2018-05-23T02:51:44.778Z,1023.84
2018-05-23T02:53:12.244Z,1023.83
2018-05-23T02:54:39.656Z,1023.83
2018-05-23T02:56:06.922Z,1023.86
2018-05-23T02:57:34.279Z,1023.90
2018-05-23T02:59:01.653Z,1023.93
2018-05-23T03:00:29.043Z,1023.96
2018-05-23T03:01:56.386Z,1023.98
2018-05-23T03:03:23.810Z,1023.98
2018-05-23T03:04:51.117Z,1023.99
2018-05-23T03:06:18.455Z,1024.04
2018-05-23T03:07:45.777Z,1024.04
2018-05-23T03:09:13.091Z,1024.05
2018-05-23T03:10:40.594Z,1024.07
2018-05-23T03:12:07.883Z,1024.08
2018-05-23T03:13:35.185Z,1024.08
2018-05-23T03:15:02.548Z,1024.09
2018-05-23T03:16:29.808Z,1024.11
2018-05-23T03:17:57.086Z,1024.11
2018-05-23T03:19:24.233Z,1024.12
2018-05-23T03:20:51.654Z,1024.13
2018-05-23T03:22:18.945Z,1024.16
2018-05-23T03:23:46.154Z,1024.19
2018-05-23T03:25:13.678Z,1024.20
2018-05-23T03:26:40.952Z,1024.20
2018-05-23T03:28:08.227Z,1024.21
2018-05-23T03:29:35.732Z,1024.19
2018-05-23T03:31:03.053Z,1024.18
2018-05-23T03:32:30.184Z,1024.18
2018-05-23T03:33:57.498Z,1024.21
2018-05-23T03:35:24.842Z,1024.21
2018-05-23T03:36:51.973Z,1024.23
2018-05-23T03:38:19.176Z,1024.26
2018-05-23T03:39:46.429Z,1024.26
2018-05-23T03:41:13.676Z,1024.27
2018-05-23T03:42:41.139Z,1024.30
2018-05-23T03:44:08.655Z,1024.29
2018-05-23T03:45:35.751Z,1024.32
2018-05-23T03:47:03.262Z,1024.34
2018-05-23T03:48:30.461Z,1024.37
2018-05-23T03:49:57.647Z,1024.39
2018-05-23T03:51:25.106Z,1024.45
2018-05-23T03:52:52.460Z,1024.46
2018-05-23T03:54:19.704Z,1024.45
2018-05-23T03:55:47.113Z,1024.49
2018-05-23T03:57:14.385Z,1024.50
2018-05-23T03:58:41.701Z,1024.49
2018-05-23T04:00:09.029Z,1024.51
2018-05-23T04:01:36.130Z,1024.51
2018-05-23T04:03:03.368Z,1024.53
2018-05-23T04:04:30.678Z,1024.56
2018-05-23T04:05:58.124Z,1024.60
2018-05-23T04:07:25.186Z,1024.60
2018-05-23T04:08:52.616Z,1024.60
2018-05-23T04:10:20.106Z,1024.61
2018-05-23T04:11:47.302Z,1024.65
2018-05-23T04:13:14.734Z,1024.69
2018-05-23T04:14:42.178Z,1024.73
2018-05-23T04:16:09.604Z,1024.75
2018-05-23T04:17:36.914Z,1024.79
2018-05-23T04:19:04.363Z,1024.80
2018-05-23T04:20:31.589Z,1024.80
2018-05-23T04:21:59.012Z,1024.78
2018-05-23T04:23:26.335Z,1024.77
2018-05-23T04:24:53.571Z,1024.76
2018-05-23T04:26:21.829Z,1024.76
2018-05-23T04:27:48.078Z,1024.78
2018-05-23T04:29:15.388Z,1024.79
2018-05-23T04:30:42.696Z,1024.76
2018-05-23T04:32:09.980Z,1024.76
2018-05-23T04:33:37.311Z,1024.79
2018-05-23T04:35:04.809Z,1024.81
2018-05-23T04:36:32.245Z,1024.80
2018-05-23T04:37:59.476Z,1024.80
2018-05-23T04:39:26.801Z,1024.80
2018-05-23T04:40:53.920Z,1024.80
2018-05-23T04:42:21.299Z,1024.80
2018-05-23T04:43:48.663Z,1024.81
2018-05-23T04:45:16.023Z,1024.83
2018-05-23T04:46:43.450Z,1024.84
2018-05-23T04:48:10.746Z,1024.85
2018-05-23T04:49:38.151Z,1024.85
2018-05-23T04:51:05.710Z,1024.89
2018-05-23T04:52:32.986Z,1024.89
2018-05-23T04:54:00.262Z,1024.93
2018-05-23T04:55:27.533Z,1024.94
2018-05-23T04:56:54.946Z,1024.93
2018-05-23T04:58:22.148Z,1024.92
2018-05-23T04:59:49.566Z,1024.93
2018-05-23T05:01:16.931Z,1024.94
2018-05-23T05:02:44.325Z,1024.94
2018-05-23T05:04:11.836Z,1024.93
2018-05-23T05:05:39.149Z,1024.94
2018-05-23T05:07:06.703Z,1024.97
2018-05-23T05:08:34.063Z,1024.99
2018-05-23T05:10:01.153Z,1025.00
2018-05-23T05:11:28.390Z,1025.02
2018-05-23T05:12:55.871Z,1025.06
2018-05-23T05:14:23.232Z,1025.08
2018-05-23T05:15:50.413Z,1025.09
2018-05-23T05:17:17.537Z,1025.14
2018-05-23T05:18:44.920Z,1025.18
2018-05-23T05:20:12.407Z,1025.21
2018-05-23T05:21:39.720Z,1025.23
2018-05-23T05:23:07.099Z,1025.27
2018-05-23T05:24:34.534Z,1025.29
2018-05-23T05:26:01.826Z,1025.32
2018-05-23T05:27:29.221Z,1025.35
2018-05-23T05:28:56.539Z,1025.35
2018-05-23T05:30:23.881Z,1025.39
2018-05-23T05:31:51.417Z,1025.40
2018-05-23T05:33:18.806Z,1025.42
2018-05-23T05:34:45.997Z,1025.42
2018-05-23T05:36:13.401Z,1025.44
2018-05-23T05:37:41.007Z,1025.44
2018-05-23T05:39:07.942Z,1025.48
2018-05-23T05:40:35.235Z,1025.49
2018-05-23T05:42:02.703Z,1025.49
2018-05-23T05:43:30.089Z,1025.47
2018-05-23T05:44:57.428Z,1025.44
2018-05-23T05:46:24.855Z,1025.41
2018-05-23T05:47:52.321Z,1025.42
2018-05-23T05:49:19.965Z,1025.42
2018-05-23T05:50:47.223Z,1025.41
2018-05-23T05:52:14.777Z,1025.41
2018-05-23T05:53:42.134Z,1025.38
2018-05-23T05:55:09.423Z,1025.39
2018-05-23T05:56:36.672Z,1025.41
2018-05-23T05:58:04.002Z,1025.41
2018-05-23T05:59:31.409Z,1025.42
2018-05-23T06:00:58.750Z,1025.46
2018-05-23T06:02:26.128Z,1025.44
2018-05-23T06:03:53.590Z,1025.42
2018-05-23T06:05:21.008Z,1025.38
2018-05-23T06:06:48.284Z,1025.41
2018-05-23T06:08:15.573Z,1025.39
2018-05-23T06:09:43.024Z,1025.38
2018-05-23T06:11:10.375Z,1025.39
2018-05-23T06:12:37.755Z,1025.39
2018-05-23T06:14:05.160Z,1025.40
2018-05-23T06:15:32.771Z,1025.42
2018-05-23T06:17:00.331Z,1025.41
2018-05-23T06:18:27.814Z,1025.42
2018-05-23T06:19:55.209Z,1025.42
2018-05-23T06:21:22.511Z,1025.43
2018-05-23T06:22:50.078Z,1025.46
2018-05-23T06:24:17.510Z,1025.50
2018-05-23T06:25:45.023Z,1025.52
2018-05-23T06:27:12.614Z,1025.54
2018-05-23T06:28:39.981Z,1025.59
2018-05-23T06:30:07.429Z,1025.56
2018-05-23T06:31:34.861Z,1025.58
2018-05-23T06:33:02.342Z,1025.55
2018-05-23T06:34:29.888Z,1025.55
2018-05-23T06:35:57.455Z,1025.57
2018-05-23T06:37:24.798Z,1025.57
2018-05-23T06:38:52.573Z,1025.56
2018-05-23T06:40:19.911Z,1025.54
2018-05-23T06:41:46.934Z,1025.58
2018-05-23T06:43:14.570Z,1025.57
2018-05-23T06:44:42.095Z,1025.58
2018-05-23T06:46:09.524Z,1025.57
2018-05-23T06:47:36.989Z,1025.59
2018-05-23T06:49:04.492Z,1025.58
2018-05-23T06:50:31.846Z,1025.61
2018-05-23T06:51:59.410Z,1025.62
2018-05-23T06:53:26.902Z,1025.63
2018-05-23T06:54:54.271Z,1025.64
2018-05-23T06:56:21.750Z,1025.63
2018-05-23T06:57:49.237Z,1025.64
2018-05-23T06:59:16.752Z,1025.69
2018-05-23T07:00:44.223Z,1025.67
2018-05-23T07:02:11.855Z,1025.67
2018-05-23T07:03:39.156Z,1025.69
2018-05-23T07:05:06.461Z,1025.71
2018-05-23T07:06:33.959Z,1025.72
2018-05-23T07:08:01.197Z,1025.71
2018-05-23T07:09:28.561Z,1025.72
2018-05-23T07:10:55.986Z,1025.71
2018-05-23T07:12:23.409Z,1025.71
2018-05-23T07:13:50.838Z,1025.70
2018-05-23T07:15:18.152Z,1025.73
2018-05-23T07:16:45.759Z,1025.71
2018-05-23T07:18:13.236Z,1025.73
2018-05-23T07:19:40.739Z,1025.74
2018-05-23T07:21:07.907Z,1025.72
2018-05-23T07:22:35.369Z,1025.71
2018-05-23T07:24:02.904Z,1025.68
2018-05-23T07:25:30.317Z,1025.69
2018-05-23T07:26:57.798Z,1025.69
2018-05-23T07:28:25.256Z,1025.73
2018-05-23T07:29:52.904Z,1025.73
2018-05-23T07:31:20.382Z,1025.74
2018-05-23T07:32:47.834Z,1025.78
2018-05-23T07:34:15.406Z,1025.79
2018-05-23T07:35:42.686Z,1025.77
2018-05-23T07:37:09.786Z,1025.75
2018-05-23T07:38:37.279Z,1025.77
2018-05-23T07:40:04.848Z,1025.79
2018-05-23T07:41:32.303Z,1025.78
2018-05-23T07:42:59.780Z,1025.76
2018-05-23T07:44:26.875Z,1025.80
2018-05-23T07:45:54.038Z,1025.82
2018-05-23T07:47:21.458Z,1025.79
2018-05-23T07:48:48.962Z,1025.82
2018-05-23T07:50:16.118Z,1025.85
2018-05-23T07:51:43.464Z,1025.83
2018-05-23T07:53:10.953Z,1025.86
2018-05-23T07:54:38.277Z,1025.88
2018-05-23T07:56:05.833Z,1025.88
2018-05-23T07:57:33.306Z,1025.86
2018-05-23T07:59:00.764Z,1025.86
2018-05-23T08:00:28.270Z,1025.85
2018-05-23T08:01:55.573Z,1025.89
2018-05-23T08:03:22.775Z,1025.89
2018-05-23T08:04:50.366Z,1025.88
2018-05-23T08:06:18.131Z,1025.89
2018-05-23T08:07:45.562Z,1025.88
2018-05-23T08:09:12.792Z,1025.88
2018-05-23T08:10:39.992Z,1025.87
2018-05-23T08:12:07.594Z,1025.82
2018-05-23T08:13:34.874Z,1025.80
2018-05-23T08:15:02.437Z,1025.80
2018-05-23T08:16:29.837Z,1025.79
2018-05-23T08:17:57.353Z,1025.79
2018-05-23T08:19:24.785Z,1025.82
2018-05-23T08:20:52.332Z,1025.85
2018-05-23T08:22:22.805Z,1025.83
2018-05-23T08:23:47.407Z,1025.83
2018-05-23T08:25:14.492Z,1025.88
2018-05-23T08:26:41.980Z,1025.85
2018-05-23T08:28:09.564Z,1025.86
2018-05-23T08:29:37.227Z,1025.86
2018-05-23T08:31:04.505Z,1025.87
2018-05-23T08:32:32.001Z,1025.93
2018-05-23T08:33:59.167Z,1025.90
2018-05-23T08:35:26.551Z,1025.90
2018-05-23T08:36:54.071Z,1025.90
2018-05-23T08:38:21.498Z,1025.87
2018-05-23T08:39:49.069Z,1025.88
2018-05-23T08:41:16.527Z,1025.88
2018-05-23T08:42:44.096Z,1025.89
2018-05-23T08:44:11.070Z,1025.90
2018-05-23T08:45:38.847Z,1025.95
2018-05-23T08:47:05.960Z,1025.93
2018-05-23T08:48:33.392Z,1026.01
2018-05-23T08:50:00.985Z,1025.99
2018-05-23T08:51:28.400Z,1025.97
2018-05-23T08:52:55.885Z,1025.97
2018-05-23T08:54:23.371Z,1025.98
2018-05-23T08:55:50.728Z,1025.97
2018-05-23T08:57:18.274Z,1025.92
2018-05-23T08:58:45.684Z,1025.96
2018-05-23T09:00:13.055Z,1025.99
2018-05-23T09:01:40.703Z,1026.00
2018-05-23T09:03:08.299Z,1026.02
2018-05-23T09:04:35.397Z,1026.02
2018-05-23T09:06:02.841Z,1026.02
2018-05-23T09:07:30.407Z,1026.02
2018-05-23T09:08:57.697Z,1026.00
2018-05-23T09:10:25.083Z,1025.98
2018-05-23T09:11:52.560Z,1025.98
2018-05-23T09:13:20.104Z,1026.01
2018-05-23T09:14:47.774Z,1026.04
2018-05-23T09:16:15.046Z,1026.05
2018-05-23T09:17:42.688Z,1026.04
2018-05-23T09:19:10.297Z,1026.08
2018-05-23T09:20:37.635Z,1026.11
2018-05-23T09:22:05.038Z,1026.10
2018-05-23T09:23:32.658Z,1026.12
2018-05-23T09:25:00.233Z,1026.13
2018-05-23T09:26:27.669Z,1026.08
2018-05-23T09:27:55.104Z,1026.13
2018-05-23T09:29:22.574Z,1026.14
2018-05-23T09:30:50.287Z,1026.15
2018-05-23T09:32:17.451Z,1026.13
2018-05-23T09:33:44.936Z,1026.17
2018-05-23T09:35:12.500Z,1026.12
2018-05-23T09:36:40.051Z,1026.12
2018-05-23T09:38:07.675Z,1026.08
2018-05-23T09:39:34.985Z,1026.07
2018-05-23T09:41:02.141Z,1026.08
2018-05-23T09:42:29.652Z,1026.10
2018-05-23T09:43:57.116Z,1026.14
2018-05-23T09:45:24.478Z,1026.14
2018-05-23T09:46:51.877Z,1026.20
2018-05-23T09:48:19.537Z,1026.18
2018-05-23T09:49:47.074Z,1026.19
2018-05-23T09:51:14.810Z,1026.22
2018-05-23T09:52:42.326Z,1026.28
2018-05-23T09:54:09.712Z,1026.33
2018-05-23T09:55:37.306Z,1026.28
2018-05-23T09:57:04.727Z,1026.27
2018-05-23T09:58:32.125Z,1026.24
2018-05-23T09:59:59.510Z,1026.23
2018-05-23T10:01:27.134Z,1026.23
2018-05-23T10:02:54.198Z,1026.23
2018-05-23T10:04:21.899Z,1026.22
2018-05-23T10:05:49.579Z,1026.27
2018-05-23T10:07:17.118Z,1026.23
2018-05-23T10:08:44.356Z,1026.27
2018-05-23T10:10:12.117Z,1026.22
2018-05-23T10:11:39.572Z,1026.21
2018-05-23T10:13:06.515Z,1026.24
2018-05-23T10:14:34.087Z,1026.21
2018-05-23T10:16:01.424Z,1026.20
2018-05-23T10:17:28.641Z,1026.20
2018-05-23T10:18:56.164Z,1026.19
2018-05-23T10:20:23.277Z,1026.21
2018-05-23T10:21:50.787Z,1026.24
2018-05-23T10:23:17.498Z,1026.29
2018-05-23T10:24:44.979Z,1026.25
2018-05-23T10:26:11.886Z,1026.26
2018-05-23T10:27:39.481Z,1026.27
2018-05-23T10:29:06.916Z,1026.29
2018-05-23T10:30:34.452Z,1026.30
2018-05-23T10:32:01.718Z,1026.30
2018-05-23T10:33:29.425Z,1026.32
2018-05-23T10:34:57.319Z,1026.36
2018-05-23T10:36:23.996Z,1026.33
2018-05-23T10:37:59.386Z,1026.39
2018-05-23T10:39:18.454Z,1026.37
2018-05-23T10:40:45.942Z,1026.37
2018-05-23T10:42:13.466Z,1026.35
2018-05-23T10:43:41.156Z,1026.36
2018-05-23T10:45:08.438Z,1026.34
2018-05-23T10:46:39.099Z,1026.35
2018-05-23T10:48:03.724Z,1026.39
2018-05-23T10:49:31.027Z,1026.42
2018-05-23T10:50:58.392Z,1026.40
2018-05-23T10:52:25.979Z,1026.38
2018-05-23T10:53:53.326Z,1026.39
2018-05-23T10:55:21.040Z,1026.43
2018-05-23T10:56:48.600Z,1026.44
2018-05-23T10:58:15.867Z,1026.41
2018-05-23T10:59:43.463Z,1026.43
2018-05-23T11:01:10.826Z,1026.44
2018-05-23T11:02:38.354Z,1026.41
2018-05-23T11:04:05.854Z,1026.39
2018-05-23T11:05:33.580Z,1026.44
2018-05-23T11:07:00.970Z,1026.37
2018-05-23T11:08:28.786Z,1026.41
2018-05-23T11:09:55.916Z,1026.40
2018-05-23T11:11:23.289Z,1026.41
2018-05-23T11:12:50.848Z,1026.42
2018-05-23T11:14:18.426Z,1026.38
2018-05-23T11:15:46.134Z,1026.45
2018-05-23T11:17:13.485Z,1026.45
2018-05-23T11:18:41.291Z,1026.38
2018-05-23T11:20:08.898Z,1026.37
2018-05-23T11:21:36.506Z,1026.38
2018-05-23T11:23:04.105Z,1026.38
2018-05-23T11:24:31.640Z,1026.35
2018-05-23T11:25:59.267Z,1026.38
2018-05-23T11:27:26.752Z,1026.37
2018-05-23T11:28:54.275Z,1026.35
2018-05-23T11:30:21.949Z,1026.41
2018-05-23T11:31:49.584Z,1026.36
2018-05-23T11:33:17.109Z,1026.37
2018-05-23T11:34:44.845Z,1026.43
2018-05-23T11:36:12.296Z,1026.38
2018-05-23T11:37:39.859Z,1026.38
2018-05-23T11:39:07.357Z,1026.40
2018-05-23T11:40:34.896Z,1026.38
2018-05-23T11:42:02.068Z,1026.36
2018-05-23T11:43:29.608Z,1026.36
2018-05-23T11:44:56.934Z,1026.36
2018-05-23T11:46:24.619Z,1026.38
2018-05-23T11:47:51.977Z,1026.36
2018-05-23T11:49:19.697Z,1026.35
2018-05-23T11:50:47.298Z,1026.30
2018-05-23T11:52:15.004Z,1026.30
2018-05-23T11:53:42.652Z,1026.29
2018-05-23T11:55:10.326Z,1026.30
2018-05-23T11:56:38.040Z,1026.28
2018-05-23T11:58:05.641Z,1026.30
2018-05-23T11:59:33.363Z,1026.29
2018-05-23T12:01:00.814Z,1026.26
2018-05-23T12:02:28.416Z,1026.29
2018-05-23T12:03:56.124Z,1026.28
2018-05-23T12:05:23.507Z,1026.26
2018-05-23T12:06:51.289Z,1026.27
2018-05-23T12:08:18.719Z,1026.29
2018-05-23T12:09:46.389Z,1026.23
2018-05-23T12:11:14.190Z,1026.24
2018-05-23T12:12:41.465Z,1026.21
2018-05-23T12:14:09.004Z,1026.23
2018-05-23T12:15:36.718Z,1026.26
2018-05-23T12:17:03.881Z,1026.22
2018-05-23T12:18:31.418Z,1026.23
2018-05-23T12:19:58.998Z,1026.20
2018-05-23T12:21:26.528Z,1026.19
2018-05-23T12:22:53.899Z,1026.23
2018-05-23T12:24:21.659Z,1026.24
2018-05-23T12:25:49.406Z,1026.21
2018-05-23T12:27:16.637Z,1026.19
2018-05-23T12:28:44.344Z,1026.17
2018-05-23T12:30:11.754Z,1026.19
2018-05-23T12:31:39.345Z,1026.25
2018-05-23T12:33:06.958Z,1026.23
2018-05-23T12:34:34.662Z,1026.28
2018-05-23T12:36:02.256Z,1026.26
2018-05-23T12:37:29.911Z,1026.22
2018-05-23T12:38:57.555Z,1026.22
2018-05-23T12:40:25.186Z,1026.27
2018-05-23T12:41:52.729Z,1026.27
2018-05-23T12:43:20.355Z,1026.30
2018-05-23T12:44:47.776Z,1026.31
2018-05-23T12:46:15.438Z,1026.30
2018-05-23T12:47:43.045Z,1026.30
2018-05-23T12:49:10.766Z,1026.31
2018-05-23T12:50:38.504Z,1026.33
2018-05-23T12:52:06.074Z,1026.37
2018-05-23T12:53:33.573Z,1026.37
2018-05-23T12:55:01.208Z,1026.35
2018-05-23T12:56:28.906Z,1026.35
2018-05-23T12:57:56.410Z,1026.35
2018-05-23T12:59:23.842Z,1026.34
2018-05-23T13:00:51.391Z,1026.34
2018-05-23T13:02:19.167Z,1026.16
2018-05-23T13:03:46.755Z,1026.39
2018-05-23T13:05:14.015Z,1026.36
2018-05-23T13:06:41.699Z,1026.39
2018-05-23T13:08:09.193Z,1026.37
2018-05-23T13:09:36.828Z,1026.37
2018-05-23T13:11:04.547Z,1026.37
2018-05-23T13:12:32.285Z,1026.39
2018-05-23T13:13:59.262Z,1026.37
2018-05-23T13:15:26.843Z,1026.40
2018-05-23T13:16:54.514Z,1026.42
2018-05-23T13:18:22.013Z,1026.38
2018-05-23T13:19:49.164Z,1026.41
2018-05-23T13:21:16.641Z,1026.36
2018-05-23T13:22:44.129Z,1026.34
2018-05-23T13:24:11.858Z,1026.34
2018-05-23T13:25:39.485Z,1026.37
2018-05-23T13:27:07.082Z,1026.39
2018-05-23T13:28:34.557Z,1026.37
2018-05-23T13:30:01.966Z,1026.43
2018-05-23T13:31:29.695Z,1026.41
2018-05-23T13:32:57.293Z,1026.38
2018-05-23T13:34:24.706Z,1026.42
2018-05-23T13:35:52.457Z,1026.36
2018-05-23T13:37:20.014Z,1026.46
2018-05-23T13:38:47.536Z,1026.41
2018-05-23T13:40:15.132Z,1026.37
2018-05-23T13:41:42.269Z,1026.37
2018-05-23T13:43:09.863Z,1026.40
2018-05-23T13:44:37.547Z,1026.39
2018-05-23T13:46:05.082Z,1026.39
2018-05-23T13:47:32.842Z,1026.48
2018-05-23T13:49:00.279Z,1026.45
2018-05-23T13:50:27.453Z,1026.44
2018-05-23T13:51:54.871Z,1026.42
2018-05-23T13:53:22.501Z,1026.39
2018-05-23T13:54:50.191Z,1026.37
2018-05-23T13:56:17.883Z,1026.43
2018-05-23T13:57:45.555Z,1026.40
2018-05-23T13:59:13.067Z,1026.44
2018-05-23T14:00:40.711Z,1026.38
2018-05-23T14:02:08.213Z,1026.39
2018-05-23T14:03:35.625Z,1026.38
2018-05-23T14:05:03.158Z,1026.35
2018-05-23T14:06:30.335Z,1026.34
2018-05-23T14:07:58.571Z,1026.34
2018-05-23T14:09:25.056Z,1026.43
2018-05-23T14:10:52.601Z,1026.38
2018-05-23T14:12:20.344Z,1026.36
2018-05-23T14:13:47.837Z,1026.37
2018-05-23T14:15:15.086Z,1026.39
2018-05-23T14:16:42.604Z,1026.40
2018-05-23T14:18:10.190Z,1026.37
2018-05-23T14:19:37.731Z,1026.39
2018-05-23T14:21:05.358Z,1026.37
2018-05-23T14:22:32.792Z,1026.37
2018-05-23T14:24:00.126Z,1026.40
2018-05-23T14:25:27.574Z,1026.39
2018-05-23T14:26:55.142Z,1026.41
2018-05-23T14:28:22.514Z,1026.41
2018-05-23T14:29:50.094Z,1026.43
2018-05-23T14:31:17.783Z,1026.42
2018-05-23T14:32:45.319Z,1026.45
2018-05-23T14:34:12.870Z,1026.47
2018-05-23T14:35:39.919Z,1026.43
2018-05-23T14:37:07.352Z,1026.46
2018-05-23T14:38:34.964Z,1026.46
2018-05-23T14:40:02.429Z,1026.48
2018-05-23T14:41:29.954Z,1026.47
2018-05-23T14:42:57.385Z,1026.45
2018-05-23T14:44:24.839Z,1026.49
2018-05-23T14:45:51.854Z,1026.46
2018-05-23T14:47:19.688Z,1026.41
2018-05-23T14:48:47.148Z,1026.47
2018-05-23T14:50:14.737Z,1026.51
2018-05-23T14:51:41.938Z,1026.43
2018-05-23T14:53:09.432Z,1026.45
2018-05-23T14:54:37.063Z,1026.41
2018-05-23T14:56:04.537Z,1026.44
2018-05-23T14:57:32.194Z,1026.45
2018-05-23T14:58:59.900Z,1026.44
2018-05-23T15:00:27.416Z,1026.45
2018-05-23T15:01:54.679Z,1026.47
2018-05-23T15:03:22.288Z,1026.48
2018-05-23T15:04:49.923Z,1026.48
2018-05-23T15:06:17.097Z,1026.45
2018-05-23T15:07:44.569Z,1026.45
2018-05-23T15:09:12.163Z,1026.48
2018-05-23T15:10:39.691Z,1026.47
2018-05-23T15:12:06.581Z,1026.48
2018-05-23T15:13:34.124Z,1026.46
2018-05-23T15:15:01.639Z,1026.43
2018-05-23T15:16:29.048Z,1026.45
2018-05-23T15:17:56.582Z,1026.46
2018-05-23T15:19:24.015Z,1026.44
2018-05-23T15:20:51.637Z,1026.43
2018-05-23T15:22:19.151Z,1026.42
2018-05-23T15:23:46.537Z,1026.40
2018-05-23T15:25:13.995Z,1026.37
2018-05-23T15:26:41.297Z,1026.33
2018-05-23T15:28:08.296Z,1026.34
2018-05-23T15:29:35.865Z,1026.36
2018-05-23T15:31:03.121Z,1026.31
2018-05-23T15:32:30.661Z,1026.31
2018-05-23T15:33:57.978Z,1026.32
2018-05-23T15:35:25.638Z,1026.29
2018-05-23T15:36:52.703Z,1026.30
2018-05-23T15:38:20.315Z,1026.29
2018-05-23T15:39:47.571Z,1026.29
2018-05-23T15:41:14.813Z,1026.36
2018-05-23T15:42:42.221Z,1026.38
2018-05-23T15:44:10.016Z,1026.39
2018-05-23T15:45:37.540Z,1026.38
2018-05-23T15:47:05.136Z,1026.38
2018-05-23T15:48:32.213Z,1026.38
2018-05-23T15:49:59.902Z,1026.39
2018-05-23T15:51:27.285Z,1026.39
2018-05-23T15:52:54.595Z,1026.38
2018-05-23T15:54:21.971Z,1026.40
2018-05-23T15:55:49.519Z,1026.40
2018-05-23T15:57:17.263Z,1026.42
2018-05-23T15:58:44.848Z,1026.43
2018-05-23T16:00:12.398Z,1026.41
2018-05-23T16:01:40.038Z,1026.41
2018-05-23T16:03:07.455Z,1026.41
2018-05-23T16:04:35.125Z,1026.40
2018-05-23T16:06:02.816Z,1026.40
2018-05-23T16:07:30.179Z,1026.41
2018-05-23T16:08:57.876Z,1026.39
2018-05-23T16:10:25.250Z,1026.42
2018-05-23T16:11:53.078Z,1026.41
2018-05-23T16:13:20.453Z,1026.39
2018-05-23T16:14:48.211Z,1026.41
2018-05-23T16:16:15.537Z,1026.45
2018-05-23T16:17:43.162Z,1026.44
2018-05-23T16:19:10.532Z,1026.40
2018-05-23T16:20:38.023Z,1026.44
2018-05-23T16:22:05.476Z,1026.45
2018-05-23T16:23:33.069Z,1026.43
2018-05-23T16:25:00.414Z,1026.44
2018-05-23T16:26:27.946Z,1026.51
2018-05-23T16:27:55.443Z,1026.44
2018-05-23T16:29:22.977Z,1026.48
2018-05-23T16:30:50.380Z,1026.46
2018-05-23T16:32:17.542Z,1026.48
2018-05-23T16:33:45.132Z,1026.44
2018-05-23T16:35:12.966Z,1026.43
2018-05-23T16:36:40.415Z,1026.45
2018-05-23T16:38:07.628Z,1026.41
2018-05-23T16:39:35.116Z,1026.40
2018-05-23T16:41:02.332Z,1026.43
2018-05-23T16:42:29.590Z,1026.42
2018-05-23T16:43:56.990Z,1026.46
2018-05-23T16:45:24.531Z,1026.46
2018-05-23T16:46:52.121Z,1026.46
2018-05-23T16:48:19.713Z,1026.48
2018-05-23T16:49:46.595Z,1026.50
2018-05-23T16:51:14.154Z,1026.49
2018-05-23T16:52:41.894Z,1026.53
2018-05-23T16:54:09.433Z,1026.48
2018-05-23T16:55:36.856Z,1026.49
2018-05-23T16:57:04.400Z,1026.49
2018-05-23T16:58:31.921Z,1026.53
2018-05-23T16:59:59.482Z,1026.54
2018-05-23T17:01:26.910Z,1026.52
2018-05-23T17:02:54.380Z,1026.51
2018-05-23T17:04:21.554Z,1026.52
2018-05-23T17:05:49.217Z,1026.52
2018-05-23T17:07:16.827Z,1026.51
2018-05-23T17:08:44.291Z,1026.51
2018-05-23T17:10:11.989Z,1026.53
2018-05-23T17:11:39.521Z,1026.53
2018-05-23T17:13:06.998Z,1026.54
2018-05-23T17:14:34.508Z,1026.54
2018-05-23T17:16:01.998Z,1026.57
2018-05-23T17:17:29.511Z,1026.57
2018-05-23T17:18:56.724Z,1026.59
2018-05-23T17:20:24.104Z,1026.59
2018-05-23T17:21:51.624Z,1026.62
2018-05-23T17:23:19.349Z,1026.62
2018-05-23T17:24:46.309Z,1026.63
2018-05-23T17:26:14.083Z,1026.62
2018-05-23T17:27:41.642Z,1026.61
2018-05-23T17:29:09.232Z,1026.63
2018-05-23T17:30:36.496Z,1026.63
2018-05-23T17:32:04.134Z,1026.63
2018-05-23T17:33:31.825Z,1026.63
2018-05-23T17:34:58.799Z,1026.59
2018-05-23T17:36:26.390Z,1026.61